sensor_id;sensor_type;location;lat;lon;timestamp;pressure;altitude;pressure_sealevel;temperature;humidity
44481;BME280;30184;42.018;23.670;2023-08-12T00:00:11;92120.44;;;13.57;88.03
44481;BME280;30184;42.018;23.670;2023-08-12T00:02:45;92116.66;;;13.67;88.20
44481;BME280;30184;42.018;23.670;2023-08-12T00:05:15;92115.44;;;13.68;88.06
44481;BME280;30184;42.018;23.670;2023-08-12T00:07:45;92119.28;;;13.71;88.06
44481;BME280;30184;42.018;23.670;2023-08-12T00:10:14;92075.94;;;13.48;87.95
44481;BME280;30184;42.018;23.670;2023-08-12T00:12:44;92117.53;;;13.77;87.98
44481;BME280;30184;42.018;23.670;2023-08-12T00:15:13;92110.53;;;13.76;88.08
44481;BME280;30184;42.018;23.670;2023-08-12T00:17:43;92105.00;;;13.79;87.97
44481;BME280;30184;42.018;23.670;2023-08-12T00:20:12;92092.97;;;13.64;87.65
44481;BME280;30184;42.018;23.670;2023-08-12T00:22:43;92107.16;;;13.85;87.73
44481;BME280;30184;42.018;23.670;2023-08-12T00:25:12;92098.53;;;13.86;87.59
44481;BME280;30184;42.018;23.670;2023-08-12T00:27:42;92095.06;;;13.86;87.91
44481;BME280;30184;42.018;23.670;2023-08-12T00:30:11;92140.56;;;13.89;87.80
44481;BME280;30184;42.018;23.670;2023-08-12T00:32:41;92094.94;;;13.89;88.15
44481;BME280;30184;42.018;23.670;2023-08-12T00:35:10;92094.06;;;13.92;88.08
44481;BME280;30184;42.018;23.670;2023-08-12T00:37:41;92097.88;;;13.95;87.92
44481;BME280;30184;42.018;23.670;2023-08-12T00:40:13;92028.28;;;13.52;88.03
44481;BME280;30184;42.018;23.670;2023-08-12T00:42:42;92095.81;;;13.99;88.36
44481;BME280;30184;42.018;23.670;2023-08-12T00:45:11;92110.00;;;13.94;88.77
44481;BME280;30184;42.018;23.670;2023-08-12T00:47:41;92091.00;;;14.03;88.61
44481;BME280;30184;42.018;23.670;2023-08-12T00:50:13;92040.38;;;13.76;88.51
44481;BME280;30184;42.018;23.670;2023-08-12T00:52:42;92037.66;;;13.76;88.25
44481;BME280;30184;42.018;23.670;2023-08-12T00:55:15;92075.28;;;14.07;88.35
44481;BME280;30184;42.018;23.670;2023-08-12T00:57:44;92080.31;;;14.08;88.75
44481;BME280;30184;42.018;23.670;2023-08-12T01:00:14;92071.66;;;14.10;88.81
44481;BME280;30184;42.018;23.670;2023-08-12T01:02:44;92061.97;;;13.96;87.99
44481;BME280;30184;42.018;23.670;2023-08-12T01:05:16;92041.16;;;13.90;87.93
44481;BME280;30184;42.018;23.670;2023-08-12T01:07:46;92075.94;;;14.11;88.42
44481;BME280;30184;42.018;23.670;2023-08-12T01:10:17;92065.00;;;14.11;88.11
44481;BME280;30184;42.018;23.670;2023-08-12T01:12:50;92070.47;;;14.11;87.70
44481;BME280;30184;42.018;23.670;2023-08-12T01:15:24;92068.50;;;14.11;87.61
44481;BME280;30184;42.018;23.670;2023-08-12T01:17:55;92073.19;;;14.11;87.47
44481;BME280;30184;42.018;23.670;2023-08-12T01:20:28;92064.69;;;14.09;87.48
44481;BME280;30184;42.018;23.670;2023-08-12T01:23:08;92060.44;;;14.08;87.15
44481;BME280;30184;42.018;23.670;2023-08-12T01:25:39;92070.38;;;14.02;86.99
44481;BME280;30184;42.018;23.670;2023-08-12T01:28:08;91961.88;;;13.33;87.63
44481;BME280;30184;42.018;23.670;2023-08-12T01:30:44;92047.78;;;14.01;87.36
44481;BME280;30184;42.018;23.670;2023-08-12T01:33:24;92062.06;;;14.05;86.38
44481;BME280;30184;42.018;23.670;2023-08-12T01:36:01;92066.88;;;14.01;86.47
44481;BME280;30184;42.018;23.670;2023-08-12T01:38:35;92067.63;;;14.02;86.43
44481;BME280;30184;42.018;23.670;2023-08-12T01:41:09;92062.19;;;14.02;86.95
44481;BME280;30184;42.018;23.670;2023-08-12T01:43:39;92059.44;;;14.02;87.65
44481;BME280;30184;42.018;23.670;2023-08-12T01:46:09;92065.34;;;14.00;87.66
44481;BME280;30184;42.018;23.670;2023-08-12T01:48:39;92009.97;;;13.53;88.60
44481;BME280;30184;42.018;23.670;2023-08-12T01:51:08;92068.63;;;13.95;88.60
44481;BME280;30184;42.018;23.670;2023-08-12T01:53:39;92060.44;;;13.95;88.46
44481;BME280;30184;42.018;23.670;2023-08-12T01:56:09;92061.66;;;13.94;88.50
44481;BME280;30184;42.018;23.670;2023-08-12T01:58:38;92065.56;;;13.93;88.46
44481;BME280;30184;42.018;23.670;2023-08-12T02:01:07;92064.81;;;13.93;88.55
44481;BME280;30184;42.018;23.670;2023-08-12T02:03:37;92072.03;;;13.87;87.99
44481;BME280;30184;42.018;23.670;2023-08-12T02:06:07;92075.28;;;13.81;88.59
44481;BME280;30184;42.018;23.670;2023-08-12T02:08:36;92038.44;;;13.52;89.10
44481;BME280;30184;42.018;23.670;2023-08-12T02:11:07;92079.69;;;13.79;89.88
44481;BME280;30184;42.018;23.670;2023-08-12T02:13:36;92060.69;;;13.75;90.12
44481;BME280;30184;42.018;23.670;2023-08-12T02:16:06;92022.28;;;13.44;89.87
44481;BME280;30184;42.018;23.670;2023-08-12T02:18:36;92069.94;;;13.65;89.23
44481;BME280;30184;42.018;23.670;2023-08-12T02:21:06;92064.63;;;13.62;88.98
44481;BME280;30184;42.018;23.670;2023-08-12T02:23:35;92065.56;;;13.55;88.72
44481;BME280;30184;42.018;23.670;2023-08-12T02:26:04;92066.13;;;13.50;88.67
44481;BME280;30184;42.018;23.670;2023-08-12T02:28:35;92027.84;;;13.16;88.68
44481;BME280;30184;42.018;23.670;2023-08-12T02:31:04;92075.81;;;13.38;88.95
44481;BME280;30184;42.018;23.670;2023-08-12T02:33:34;92073.53;;;13.37;89.39
44481;BME280;30184;42.018;23.670;2023-08-12T02:36:04;91942.53;;;12.36;89.66
44481;BME280;30184;42.018;23.670;2023-08-12T02:38:33;92081.81;;;13.33;90.08
44481;BME280;30184;42.018;23.670;2023-08-12T02:41:02;92082.59;;;13.34;90.27
44481;BME280;30184;42.018;23.670;2023-08-12T02:43:32;92085.31;;;13.34;91.08
44481;BME280;30184;42.018;23.670;2023-08-12T02:46:04;92089.22;;;13.33;91.92
44481;BME280;30184;42.018;23.670;2023-08-12T02:48:35;92093.16;;;13.32;92.10
44481;BME280;30184;42.018;23.670;2023-08-12T02:51:04;92064.44;;;13.15;92.06
44481;BME280;30184;42.018;23.670;2023-08-12T02:53:34;92086.94;;;13.31;91.91
44481;BME280;30184;42.018;23.670;2023-08-12T02:56:03;92057.66;;;13.06;91.76
44481;BME280;30184;42.018;23.670;2023-08-12T02:58:32;92089.75;;;13.28;91.66
44481;BME280;30184;42.018;23.670;2023-08-12T03:01:03;92047.94;;;13.05;91.42
44481;BME280;30184;42.018;23.670;2023-08-12T03:03:33;92089.00;;;13.27;91.16
44481;BME280;30184;42.018;23.670;2023-08-12T03:06:03;92032.00;;;12.91;91.61
44481;BME280;30184;42.018;23.670;2023-08-12T03:08:33;91941.28;;;12.24;91.75
44481;BME280;30184;42.018;23.670;2023-08-12T03:11:03;92085.91;;;13.25;92.04
44481;BME280;30184;42.018;23.670;2023-08-12T03:13:32;92084.09;;;13.22;91.56
44481;BME280;30184;42.018;23.670;2023-08-12T03:16:03;92080.06;;;12.98;90.88
44481;BME280;30184;42.018;23.670;2023-08-12T03:18:33;92095.63;;;13.14;91.23
44481;BME280;30184;42.018;23.670;2023-08-12T03:21:05;92092.19;;;13.09;91.85
44481;BME280;30184;42.018;23.670;2023-08-12T03:23:35;92100.03;;;13.07;92.51
44481;BME280;30184;42.018;23.670;2023-08-12T03:26:14;92093.38;;;13.08;92.51
44481;BME280;30184;42.018;23.670;2023-08-12T03:28:43;92097.75;;;13.06;92.65
44481;BME280;30184;42.018;23.670;2023-08-12T03:31:18;92100.13;;;13.04;92.74
44481;BME280;30184;42.018;23.670;2023-08-12T03:33:48;92104.16;;;12.99;93.25
44481;BME280;30184;42.018;23.670;2023-08-12T03:36:18;92084.94;;;12.90;93.36
44481;BME280;30184;42.018;23.670;2023-08-12T03:38:48;92103.22;;;12.90;93.19
44481;BME280;30184;42.018;23.670;2023-08-12T03:41:23;92108.94;;;12.95;93.63
44481;BME280;30184;42.018;23.670;2023-08-12T03:43:54;92107.41;;;12.94;93.68
44481;BME280;30184;42.018;23.670;2023-08-12T03:46:25;92108.19;;;12.95;93.74
44481;BME280;30184;42.018;23.670;2023-08-12T03:48:55;92112.84;;;12.94;93.89
44481;BME280;30184;42.018;23.670;2023-08-12T03:51:26;92111.66;;;12.95;93.68
44481;BME280;30184;42.018;23.670;2023-08-12T03:53:55;92115.91;;;12.96;93.91
44481;BME280;30184;42.018;23.670;2023-08-12T03:56:25;92112.75;;;12.98;93.90
44481;BME280;30184;42.018;23.670;2023-08-12T03:58:54;92123.97;;;13.00;93.86
44481;BME280;30184;42.018;23.670;2023-08-12T04:01:26;92121.16;;;13.03;93.76
44481;BME280;30184;42.018;23.670;2023-08-12T04:03:56;92123.78;;;13.07;93.54
44481;BME280;30184;42.018;23.670;2023-08-12T04:06:25;92123.78;;;13.07;92.83
44481;BME280;30184;42.018;23.670;2023-08-12T04:08:54;92071.72;;;12.76;92.78
44481;BME280;30184;42.018;23.670;2023-08-12T04:11:24;92099.84;;;12.86;93.04
44481;BME280;30184;42.018;23.670;2023-08-12T04:13:53;92122.28;;;13.06;92.57
44481;BME280;30184;42.018;23.670;2023-08-12T04:16:24;92119.44;;;13.09;92.76
44481;BME280;30184;42.018;23.670;2023-08-12T04:18:54;92118.66;;;13.09;91.31
44481;BME280;30184;42.018;23.670;2023-08-12T04:21:23;92134.94;;;13.13;91.07
44481;BME280;30184;42.018;23.670;2023-08-12T04:23:52;92125.94;;;13.16;91.33
44481;BME280;30184;42.018;23.670;2023-08-12T04:26:22;92125.38;;;13.21;90.34
44481;BME280;30184;42.018;23.670;2023-08-12T04:28:52;92128.44;;;13.23;89.82
44481;BME280;30184;42.018;23.670;2023-08-12T04:31:22;92122.47;;;13.28;89.58
44481;BME280;30184;42.018;23.670;2023-08-12T04:33:52;92099.00;;;13.18;89.28
44481;BME280;30184;42.018;23.670;2023-08-12T04:36:24;92114.75;;;13.39;89.84
44481;BME280;30184;42.018;23.670;2023-08-12T04:38:53;92117.69;;;13.44;89.21
44481;BME280;30184;42.018;23.670;2023-08-12T04:41:23;92108.75;;;13.44;88.74
44481;BME280;30184;42.018;23.670;2023-08-12T04:43:54;92122.31;;;13.60;88.05
44481;BME280;30184;42.018;23.670;2023-08-12T04:46:27;92110.22;;;13.61;87.86
44481;BME280;30184;42.018;23.670;2023-08-12T04:48:58;92125.81;;;13.73;88.60
44481;BME280;30184;42.018;23.670;2023-08-12T04:51:27;92146.22;;;13.81;88.28
44481;BME280;30184;42.018;23.670;2023-08-12T04:53:57;92124.84;;;13.93;87.81
44481;BME280;30184;42.018;23.670;2023-08-12T04:56:28;92107.72;;;14.05;86.71
44481;BME280;30184;42.018;23.670;2023-08-12T04:58:58;92121.78;;;14.41;85.15
44481;BME280;30184;42.018;23.670;2023-08-12T05:01:27;92112.88;;;14.63;83.56
44481;BME280;30184;42.018;23.670;2023-08-12T05:03:58;92076.44;;;14.44;83.04
44481;BME280;30184;42.018;23.670;2023-08-12T05:06:28;92117.94;;;14.86;83.21
44481;BME280;30184;42.018;23.670;2023-08-12T05:08:58;92121.72;;;15.01;82.74
44481;BME280;30184;42.018;23.670;2023-08-12T05:11:28;92113.78;;;15.16;82.27
44481;BME280;30184;42.018;23.670;2023-08-12T05:13:58;92118.94;;;15.57;81.93
44481;BME280;30184;42.018;23.670;2023-08-12T05:16:27;92118.09;;;16.00;80.25
44481;BME280;30184;42.018;23.670;2023-08-12T05:18:58;92135.53;;;16.25;77.69
44481;BME280;30184;42.018;23.670;2023-08-12T05:21:28;92108.09;;;16.56;76.10
44481;BME280;30184;42.018;23.670;2023-08-12T05:23:58;92101.31;;;16.88;76.57
44481;BME280;30184;42.018;23.670;2023-08-12T05:26:28;92106.66;;;17.09;74.73
44481;BME280;30184;42.018;23.670;2023-08-12T05:28:57;92082.28;;;17.21;73.96
44481;BME280;30184;42.018;23.670;2023-08-12T05:31:26;92105.41;;;17.38;73.52
44481;BME280;30184;42.018;23.670;2023-08-12T05:33:56;92112.41;;;17.48;72.05
44481;BME280;30184;42.018;23.670;2023-08-12T05:36:26;92114.72;;;17.49;71.22
44481;BME280;30184;42.018;23.670;2023-08-12T05:38:55;92106.31;;;17.53;69.81
44481;BME280;30184;42.018;23.670;2023-08-12T05:41:25;92120.78;;;17.53;70.55
44481;BME280;30184;42.018;23.670;2023-08-12T05:43:55;92091.81;;;17.62;70.92
44481;BME280;30184;42.018;23.670;2023-08-12T05:46:24;92086.81;;;17.69;70.72
44481;BME280;30184;42.018;23.670;2023-08-12T05:48:54;92081.09;;;17.82;71.00
44481;BME280;30184;42.018;23.670;2023-08-12T05:51:23;92077.75;;;17.87;71.24
44481;BME280;30184;42.018;23.670;2023-08-12T05:53:56;92073.56;;;18.01;71.55
44481;BME280;30184;42.018;23.670;2023-08-12T05:56:26;92075.84;;;18.02;71.87
44481;BME280;30184;42.018;23.670;2023-08-12T05:58:55;92107.56;;;18.12;71.53
44481;BME280;30184;42.018;23.670;2023-08-12T06:01:25;92081.44;;;18.17;70.59
44481;BME280;30184;42.018;23.670;2023-08-12T06:03:54;92066.63;;;18.23;70.67
44481;BME280;30184;42.018;23.670;2023-08-12T06:06:23;92056.84;;;18.22;70.23
44481;BME280;30184;42.018;23.670;2023-08-12T06:08:52;92056.16;;;18.37;68.91
44481;BME280;30184;42.018;23.670;2023-08-12T06:11:23;92047.41;;;18.47;69.72
44481;BME280;30184;42.018;23.670;2023-08-12T06:13:52;92075.16;;;18.58;69.84
44481;BME280;30184;42.018;23.670;2023-08-12T06:16:21;92064.09;;;18.68;68.91
44481;BME280;30184;42.018;23.670;2023-08-12T06:18:50;92038.06;;;18.78;68.15
44481;BME280;30184;42.018;23.670;2023-08-12T06:21:20;92026.59;;;18.79;68.58
44481;BME280;30184;42.018;23.670;2023-08-12T06:23:49;92041.91;;;18.95;67.89
44481;BME280;30184;42.018;23.670;2023-08-12T06:26:18;92029.59;;;19.05;66.37
44481;BME280;30184;42.018;23.670;2023-08-12T06:28:49;92030.75;;;19.13;64.56
44481;BME280;30184;42.018;23.670;2023-08-12T06:31:19;92035.13;;;19.20;63.95
44481;BME280;30184;42.018;23.670;2023-08-12T06:33:48;92028.28;;;19.30;65.64
44481;BME280;30184;42.018;23.670;2023-08-12T06:36:17;92024.53;;;19.42;64.16
44481;BME280;30184;42.018;23.670;2023-08-12T06:38:46;92025.97;;;19.52;64.91
44481;BME280;30184;42.018;23.670;2023-08-12T06:41:15;92015.72;;;19.67;63.08
44481;BME280;30184;42.018;23.670;2023-08-12T06:43:45;92026.53;;;19.86;62.41
44481;BME280;30184;42.018;23.670;2023-08-12T06:46:15;92020.50;;;20.02;60.80
44481;BME280;30184;42.018;23.670;2023-08-12T06:48:44;92028.28;;;20.18;58.88
44481;BME280;30184;42.018;23.670;2023-08-12T06:51:13;92010.78;;;20.36;60.89
44481;BME280;30184;42.018;23.670;2023-08-12T06:53:43;91973.56;;;20.11;60.08
44481;BME280;30184;42.018;23.670;2023-08-12T06:56:12;92008.53;;;20.75;59.08
44481;BME280;30184;42.018;23.670;2023-08-12T06:58:41;92012.66;;;20.85;58.88
44481;BME280;30184;42.018;23.670;2023-08-12T07:01:10;92009.47;;;20.92;57.47
44481;BME280;30184;42.018;23.670;2023-08-12T07:03:43;92012.38;;;21.03;57.27
44481;BME280;30184;42.018;23.670;2023-08-12T07:06:12;92011.72;;;21.14;56.36
44481;BME280;30184;42.018;23.670;2023-08-12T07:08:41;92011.06;;;21.19;56.21
44481;BME280;30184;42.018;23.670;2023-08-12T07:11:10;92010.47;;;21.15;55.17
44481;BME280;30184;42.018;23.670;2023-08-12T07:13:39;91998.81;;;21.05;55.28
44481;BME280;30184;42.018;23.670;2023-08-12T07:16:09;92000.63;;;21.29;57.17
44481;BME280;30184;42.018;23.670;2023-08-12T07:18:38;92004.94;;;21.35;56.68
44481;BME280;30184;42.018;23.670;2023-08-12T07:21:09;92017.31;;;21.40;56.97
44481;BME280;30184;42.018;23.670;2023-08-12T07:23:38;92007.03;;;21.40;55.19
44481;BME280;30184;42.018;23.670;2023-08-12T07:26:08;92004.03;;;21.44;56.71
44481;BME280;30184;42.018;23.670;2023-08-12T07:28:37;92003.75;;;21.42;56.19
44481;BME280;30184;42.018;23.670;2023-08-12T07:31:07;92009.81;;;21.46;57.77
44481;BME280;30184;42.018;23.670;2023-08-12T07:33:37;92001.81;;;21.48;58.49
44481;BME280;30184;42.018;23.670;2023-08-12T07:36:08;91997.81;;;21.49;58.23
44481;BME280;30184;42.018;23.670;2023-08-12T07:38:38;92007.06;;;21.46;56.50
44481;BME280;30184;42.018;23.670;2023-08-12T07:41:07;91973.03;;;21.29;56.36
44481;BME280;30184;42.018;23.670;2023-08-12T07:43:36;91996.78;;;21.46;56.52
44481;BME280;30184;42.018;23.670;2023-08-12T07:46:05;91882.84;;;20.07;59.10
44481;BME280;30184;42.018;23.670;2023-08-12T07:48:35;91997.66;;;21.58;57.06
44481;BME280;30184;42.018;23.670;2023-08-12T07:51:05;91992.38;;;21.60;56.99
44481;BME280;30184;42.018;23.670;2023-08-12T07:53:36;91975.81;;;21.60;56.81
44481;BME280;30184;42.018;23.670;2023-08-12T07:56:05;91981.31;;;21.86;57.25
44481;BME280;30184;42.018;23.670;2023-08-12T07:58:34;91986.25;;;22.08;56.67
44481;BME280;30184;42.018;23.670;2023-08-12T08:01:03;91986.69;;;22.32;54.34
44481;BME280;30184;42.018;23.670;2023-08-12T08:03:34;91979.50;;;22.51;55.07
44481;BME280;30184;42.018;23.670;2023-08-12T08:06:03;91979.78;;;22.59;54.59
44481;BME280;30184;42.018;23.670;2023-08-12T08:08:32;91977.31;;;22.66;51.58
44481;BME280;30184;42.018;23.670;2023-08-12T08:11:02;91969.53;;;22.70;52.49
44481;BME280;30184;42.018;23.670;2023-08-12T08:13:31;91977.50;;;23.11;48.55
44481;BME280;30184;42.018;23.670;2023-08-12T08:16:01;91936.66;;;22.89;47.79
44481;BME280;30184;42.018;23.670;2023-08-12T08:18:30;91977.31;;;23.31;49.36
44481;BME280;30184;42.018;23.670;2023-08-12T08:20:59;91972.75;;;23.28;48.65
44481;BME280;30184;42.018;23.670;2023-08-12T08:23:31;91971.28;;;23.38;48.50
44481;BME280;30184;42.018;23.670;2023-08-12T08:26:02;91966.97;;;23.37;47.33
44481;BME280;30184;42.018;23.670;2023-08-12T08:28:31;91968.25;;;23.36;47.18
44481;BME280;30184;42.018;23.670;2023-08-12T08:31:01;91982.06;;;23.20;46.60
44481;BME280;30184;42.018;23.670;2023-08-12T08:33:30;91979.00;;;23.18;46.28
44481;BME280;30184;42.018;23.670;2023-08-12T08:35:59;91973.22;;;23.04;46.75
44481;BME280;30184;42.018;23.670;2023-08-12T08:38:28;91972.41;;;22.93;48.03
44481;BME280;30184;42.018;23.670;2023-08-12T08:40:58;91969.63;;;22.93;48.87
44481;BME280;30184;42.018;23.670;2023-08-12T08:43:29;91971.91;;;23.00;47.52
44481;BME280;30184;42.018;23.670;2023-08-12T08:46:00;91970.94;;;23.03;47.23
44481;BME280;30184;42.018;23.670;2023-08-12T08:48:30;91969.19;;;23.11;47.30
44481;BME280;30184;42.018;23.670;2023-08-12T08:51:03;91969.69;;;23.04;47.18
44481;BME280;30184;42.018;23.670;2023-08-12T08:53:34;91890.13;;;22.28;46.80
44481;BME280;30184;42.018;23.670;2023-08-12T08:56:06;91951.22;;;22.79;45.48
44481;BME280;30184;42.018;23.670;2023-08-12T08:58:42;91987.81;;;23.05;45.19
44481;BME280;30184;42.018;23.670;2023-08-12T09:01:12;91817.66;;;22.08;44.88
44481;BME280;30184;42.018;23.670;2023-08-12T09:03:42;91963.66;;;23.05;45.75
44481;BME280;30184;42.018;23.670;2023-08-12T09:06:12;91985.53;;;23.03;45.29
44481;BME280;30184;42.018;23.670;2023-08-12T09:08:45;91958.63;;;23.10;45.89
44481;BME280;30184;42.018;23.670;2023-08-12T09:11:15;91955.84;;;23.10;45.11
44481;BME280;30184;42.018;23.670;2023-08-12T09:13:47;91933.41;;;22.91;44.14
44481;BME280;30184;42.018;23.670;2023-08-12T09:16:18;91965.44;;;23.14;45.07
44481;BME280;30184;42.018;23.670;2023-08-12T09:18:47;91950.09;;;23.24;44.91
44481;BME280;30184;42.018;23.670;2023-08-12T09:21:23;91952.88;;;23.30;43.48
44481;BME280;30184;42.018;23.670;2023-08-12T09:23:53;91951.09;;;23.27;43.39
44481;BME280;30184;42.018;23.670;2023-08-12T09:26:22;91946.84;;;23.31;41.92
44481;BME280;30184;42.018;23.670;2023-08-12T09:28:53;91934.53;;;23.55;43.67
44481;BME280;30184;42.018;23.670;2023-08-12T09:31:25;91940.09;;;23.83;42.01
44481;BME280;30184;42.018;23.670;2023-08-12T09:33:58;91936.28;;;24.13;40.66
44481;BME280;30184;42.018;23.670;2023-08-12T09:36:28;91949.13;;;24.39;39.92
44481;BME280;30184;42.018;23.670;2023-08-12T09:38:59;91908.97;;;24.57;40.02
44481;BME280;30184;42.018;23.670;2023-08-12T09:41:28;91911.84;;;24.98;38.33
44481;BME280;30184;42.018;23.670;2023-08-12T09:43:58;91901.41;;;25.20;37.70
44481;BME280;30184;42.018;23.670;2023-08-12T09:46:32;91887.72;;;25.22;38.25
44481;BME280;30184;42.018;23.670;2023-08-12T09:49:02;91907.72;;;25.56;39.85
44481;BME280;30184;42.018;23.670;2023-08-12T09:51:34;91901.16;;;25.89;38.01
44481;BME280;30184;42.018;23.670;2023-08-12T09:54:04;91872.88;;;25.85;37.15
44481;BME280;30184;42.018;23.670;2023-08-12T09:56:36;91887.38;;;26.02;38.64
44481;BME280;30184;42.018;23.670;2023-08-12T09:59:08;91882.09;;;25.99;37.59
44481;BME280;30184;42.018;23.670;2023-08-12T10:01:38;91882.72;;;25.86;37.34
44481;BME280;30184;42.018;23.670;2023-08-12T10:04:11;91891.81;;;25.87;36.33
44481;BME280;30184;42.018;23.670;2023-08-12T10:06:41;91885.88;;;26.01;37.41
44481;BME280;30184;42.018;23.670;2023-08-12T10:09:10;91888.66;;;26.01;34.26
44481;BME280;30184;42.018;23.670;2023-08-12T10:11:41;91785.63;;;25.34;33.71
44481;BME280;30184;42.018;23.670;2023-08-12T10:14:13;91787.19;;;25.59;35.79
44481;BME280;30184;42.018;23.670;2023-08-12T10:16:46;91868.50;;;26.44;37.03
44481;BME280;30184;42.018;23.670;2023-08-12T10:19:16;91782.38;;;26.09;37.04
44481;BME280;30184;42.018;23.670;2023-08-12T10:21:48;91842.81;;;26.57;35.56
44481;BME280;30184;42.018;23.670;2023-08-12T10:24:18;91863.97;;;26.65;36.12
44481;BME280;30184;42.018;23.670;2023-08-12T10:26:49;91869.22;;;26.50;35.16
44481;BME280;30184;42.018;23.670;2023-08-12T10:29:22;91808.88;;;25.91;36.03
44481;BME280;30184;42.018;23.670;2023-08-12T10:31:52;91778.06;;;25.59;34.79
44481;BME280;30184;42.018;23.670;2023-08-12T10:34:24;91881.06;;;26.32;35.40
44481;BME280;30184;42.018;23.670;2023-08-12T10:36:55;91716.34;;;25.42;34.46
44481;BME280;30184;42.018;23.670;2023-08-12T10:39:30;91852.59;;;26.63;35.45
44481;BME280;30184;42.018;23.670;2023-08-12T10:42:40;91859.53;;;26.75;34.68
44481;BME280;30184;42.018;23.670;2023-08-12T10:45:13;91848.44;;;26.70;35.73
44481;BME280;30184;42.018;23.670;2023-08-12T10:47:48;91861.63;;;26.69;36.07
44481;BME280;30184;42.018;23.670;2023-08-12T10:50:18;91861.22;;;26.41;35.20
44481;BME280;30184;42.018;23.670;2023-08-12T10:52:51;91840.97;;;26.16;35.38
44481;BME280;30184;42.018;23.670;2023-08-12T10:55:22;91863.56;;;26.07;36.94
44481;BME280;30184;42.018;23.670;2023-08-12T10:57:53;91868.59;;;26.09;35.59
44481;BME280;30184;42.018;23.670;2023-08-12T11:00:25;91876.47;;;25.80;36.11
44481;BME280;30184;42.018;23.670;2023-08-12T11:02:55;91869.47;;;25.68;36.82
44481;BME280;30184;42.018;23.670;2023-08-12T11:05:36;91860.75;;;25.53;37.10
44481;BME280;30184;42.018;23.670;2023-08-12T11:08:05;91853.25;;;25.42;36.60
44481;BME280;30184;42.018;23.670;2023-08-12T11:10:35;91869.66;;;25.40;36.71
44481;BME280;30184;42.018;23.670;2023-08-12T11:13:04;91869.34;;;25.49;37.36
44481;BME280;30184;42.018;23.670;2023-08-12T11:15:37;91860.19;;;25.60;37.89
44481;BME280;30184;42.018;23.670;2023-08-12T11:18:10;91869.25;;;25.66;37.58
44481;BME280;30184;42.018;23.670;2023-08-12T11:20:42;91869.53;;;25.62;38.18
44481;BME280;30184;42.018;23.670;2023-08-12T11:23:11;91865.50;;;25.63;38.82
44481;BME280;30184;42.018;23.670;2023-08-12T11:25:42;91877.34;;;25.58;38.19
44481;BME280;30184;42.018;23.670;2023-08-12T11:28:13;91861.22;;;25.57;36.24
44481;BME280;30184;42.018;23.670;2023-08-12T11:30:44;91859.59;;;25.73;36.14
44481;BME280;30184;42.018;23.670;2023-08-12T11:33:16;91859.19;;;25.57;36.55
44481;BME280;30184;42.018;23.670;2023-08-12T11:35:46;91861.25;;;25.51;36.03
44481;BME280;30184;42.018;23.670;2023-08-12T11:38:16;91873.75;;;25.69;35.55
44481;BME280;30184;42.018;23.670;2023-08-12T11:40:45;91871.34;;;25.54;34.82
44481;BME280;30184;42.018;23.670;2023-08-12T11:43:14;91860.97;;;25.55;35.31
44481;BME280;30184;42.018;23.670;2023-08-12T11:45:45;91858.91;;;25.67;35.54
44481;BME280;30184;42.018;23.670;2023-08-12T11:48:14;91857.59;;;25.38;34.31
44481;BME280;30184;42.018;23.670;2023-08-12T11:50:43;91855.94;;;25.53;35.92
44481;BME280;30184;42.018;23.670;2023-08-12T11:53:13;91866.34;;;25.47;34.96
44481;BME280;30184;42.018;23.670;2023-08-12T11:55:43;91844.75;;;25.64;35.88
44481;BME280;30184;42.018;23.670;2023-08-12T11:58:13;91880.59;;;25.68;36.71
44481;BME280;30184;42.018;23.670;2023-08-12T12:00:48;91847.91;;;25.80;35.73
44481;BME280;30184;42.018;23.670;2023-08-12T12:03:18;91765.34;;;25.15;35.47
44481;BME280;30184;42.018;23.670;2023-08-12T12:05:48;91829.16;;;25.56;35.16
44481;BME280;30184;42.018;23.670;2023-08-12T12:08:17;91835.44;;;25.62;36.07
44481;BME280;30184;42.018;23.670;2023-08-12T12:10:47;91848.41;;;25.78;36.31
44481;BME280;30184;42.018;23.670;2023-08-12T12:13:17;91835.16;;;25.90;36.05
44481;BME280;30184;42.018;23.670;2023-08-12T12:15:49;91828.47;;;26.04;36.50
44481;BME280;30184;42.018;23.670;2023-08-12T12:18:18;91823.56;;;25.86;36.14
44481;BME280;30184;42.018;23.670;2023-08-12T12:20:58;91797.59;;;25.83;35.48
44481;BME280;30184;42.018;23.670;2023-08-12T12:23:28;91809.53;;;26.02;35.72
44481;BME280;30184;42.018;23.670;2023-08-12T12:25:59;91679.72;;;25.19;35.47
44481;BME280;30184;42.018;23.670;2023-08-12T12:28:30;91814.25;;;25.83;36.33
44481;BME280;30184;42.018;23.670;2023-08-12T12:31:01;91790.09;;;25.97;36.03
44481;BME280;30184;42.018;23.670;2023-08-12T12:33:30;91812.31;;;26.02;36.69
44481;BME280;30184;42.018;23.670;2023-08-12T12:36:00;91820.50;;;26.14;36.25
44481;BME280;30184;42.018;23.670;2023-08-12T12:38:30;91815.25;;;26.10;36.61
44481;BME280;30184;42.018;23.670;2023-08-12T12:41:00;91818.81;;;26.05;37.20
44481;BME280;30184;42.018;23.670;2023-08-12T12:43:29;91819.31;;;26.09;35.52
44481;BME280;30184;42.018;23.670;2023-08-12T12:46:01;91814.66;;;26.17;35.65
44481;BME280;30184;42.018;23.670;2023-08-12T12:48:30;91824.78;;;26.15;34.57
44481;BME280;30184;42.018;23.670;2023-08-12T12:51:00;91711.66;;;25.31;33.42
44481;BME280;30184;42.018;23.670;2023-08-12T12:53:29;91807.09;;;25.93;33.57
44481;BME280;30184;42.018;23.670;2023-08-12T12:55:59;91631.25;;;24.60;32.72
44481;BME280;30184;42.018;23.670;2023-08-12T12:58:32;91827.81;;;25.92;33.77
44481;BME280;30184;42.018;23.670;2023-08-12T13:01:04;91848.31;;;25.89;33.80
44481;BME280;30184;42.018;23.670;2023-08-12T13:03:34;91806.63;;;25.89;33.70
44481;BME280;30184;42.018;23.670;2023-08-12T13:06:05;91805.28;;;25.96;33.34